Time;durP1;ratioP1;P1;durP2;ratioP2;P2;SDS_P1;SDS_P2;PMS_P1;PMS_P2;Temp;Humidity;BMP_temperature;BMP_pressure;BME280_temperature;BME280_humidity;BME280_pressure;Samples;Min_cycle;Max_cycle;Signal;HPM_P1;HPM_P2
2022/09/04 00:02:15;;;;;;;;;;;20.90;72.10;;;;;;4917827;29;19927;-66
2022/09/04 00:04:48;;;;;;;;;;;20.80;72.60;;;;;;4917466;29;19982;-64
2022/09/04 00:07:20;;;;;;;;;;;20.80;72.90;;;;;;4917528;29;19922;-64
2022/09/04 00:10:02;;;;;;;;;;;20.80;72.80;;;;;;4917474;29;20042;-65
2022/09/04 00:12:30;;;;;;;;;;;20.80;73.30;;;;;;4917440;29;20279;-66
2022/09/04 00:15:01;;;;;;;;;;;20.80;73.30;;;;;;4917660;29;20387;-65
2022/09/04 00:17:27;;;;;;;;;;;20.70;73.60;;;;;;4917383;29;19922;-65
2022/09/04 00:19:55;;;;;;;;;;;20.80;73.40;;;;;;4917243;29;19911;-66
2022/09/04 00:22:39;;;;;;;;;;;20.70;73.90;;;;;;4903563;29;19915;-66
2022/09/04 00:25:05;;;;;;;;;;;20.70;74.20;;;;;;4917386;29;20312;-65
2022/09/04 00:27:33;;;;;;;;;;;20.60;74.80;;;;;;4917339;29;19922;-66
2022/09/04 00:29:59;;;;;;;;;;;20.50;75.60;;;;;;4915828;29;20335;-67
2022/09/04 00:32:33;;;;;;;;;;;20.50;75.30;;;;;;4917203;29;20363;-63
2022/09/04 00:34:58;;;;;;;;;;;20.60;75.10;;;;;;4917167;29;20006;-63
2022/09/04 00:37:26;;;;;;;;;;;20.60;75.50;;;;;;4917181;29;20338;-66
2022/09/04 00:39:55;;;;;;;;;;;20.50;75.20;;;;;;4916955;29;19911;-64
2022/09/04 00:42:33;;;;;;;;;;;20.50;75.50;;;;;;4916909;29;20323;-66
2022/09/04 00:45:05;;;;;;;;;;;20.60;75.60;;;;;;4917106;29;19938;-63
2022/09/04 00:47:43;;;;;;;;;;;20.50;75.80;;;;;;4917129;29;19937;-68
2022/09/04 00:50:17;;;;;;;;;;;20.50;75.90;;;;;;4916798;29;20442;-66
2022/09/04 00:52:52;;;;;;;;;;;20.40;76.10;;;;;;4914351;29;19923;-67
2022/09/04 00:55:26;;;;;;;;;;;20.40;76.00;;;;;;4914685;29;19917;-67
2022/09/04 00:58:10;;;;;;;;;;;20.50;76.30;;;;;;4917043;29;20268;-67
2022/09/04 01:00:36;;;;;;;;;;;20.50;73.70;;;;;;4916582;29;19919;-64
2022/09/04 01:03:13;;;;;;;;;;;20.70;72.60;;;;;;4916641;29;19922;-65
2022/09/04 01:05:57;;;;;;;;;;;20.60;71.50;;;;;;4916526;29;19918;-69
2022/09/04 01:08:49;;;;;;;;;;;20.70;72.20;;;;;;4916344;29;20040;-65
2022/09/04 01:11:18;;;;;;;;;;;20.80;70.40;;;;;;4917895;29;19919;-64
2022/09/04 01:13:59;;;;;;;;;;;20.90;71.70;;;;;;4916602;29;19915;-64
2022/09/04 01:16:42;;;;;;;;;;;20.90;71.10;;;;;;4915939;29;20312;-64
2022/09/04 01:19:18;;;;;;;;;;;20.90;70.70;;;;;;4916086;29;19947;-63
2022/09/04 01:21:47;;;;;;;;;;;20.90;70.40;;;;;;4916441;29;19911;-63
2022/09/04 01:24:28;;;;;;;;;;;21.00;70.60;;;;;;4906599;29;19919;-64
2022/09/04 01:27:12;;;;;;;;;;;21.00;70.20;;;;;;4916397;29;20291;-69
2022/09/04 01:29:46;;;;;;;;;;;21.10;69.80;;;;;;4915947;29;20033;-64
2022/09/04 01:32:28;;;;;;;;;;;21.00;70.60;;;;;;4916161;29;19923;-65
2022/09/04 01:35:05;;;;;;;;;;;20.90;71.30;;;;;;4916119;29;19915;-69
2022/09/04 01:37:46;;;;;;;;;;;20.90;72.30;;;;;;4916302;29;20391;-66
2022/09/04 01:40:15;;;;;;;;;;;20.90;71.20;;;;;;4916040;29;19948;-64
2022/09/04 01:42:55;;;;;;;;;;;20.90;72.60;;;;;;4916041;29;19915;-64
2022/09/04 01:45:32;;;;;;;;;;;20.90;73.00;;;;;;4916027;29;19919;-65
2022/09/04 01:48:01;;;;;;;;;;;20.80;73.00;;;;;;4916015;29;19911;-64
2022/09/04 01:50:31;;;;;;;;;;;20.90;72.40;;;;;;4915940;29;19915;-63
2022/09/04 01:53:09;;;;;;;;;;;20.90;72.40;;;;;;4902598;29;20022;-64
2022/09/04 01:55:35;;;;;;;;;;;20.90;72.30;;;;;;4916105;29;20399;-64
2022/09/04 01:58:15;;;;;;;;;;;20.80;73.20;;;;;;4916025;29;20371;-64
2022/09/04 02:01:03;;;;;;;;;;;20.80;72.40;;;;;;4915839;29;20002;-64
2022/09/04 02:03:59;;;;;;;;;;;20.80;72.70;;;;;;4920287;29;20367;-63
2022/09/04 02:06:36;;;;;;;;;;;20.80;72.60;;;;;;4923121;29;19915;-66
2022/09/04 02:09:10;;;;;;;;;;;20.80;73.30;;;;;;4915567;29;19927;-66
2022/09/04 02:11:37;;;;;;;;;;;20.80;70.50;;;;;;4915749;29;19979;-64
2022/09/04 02:14:11;;;;;;;;;;;20.80;68.70;;;;;;4915576;29;19911;-68
2022/09/04 02:16:41;;;;;;;;;;;20.90;68.40;;;;;;4930380;29;19918;-66
2022/09/04 02:19:10;;;;;;;;;;;21.00;67.60;;;;;;4915844;29;19915;-65
2022/09/04 02:21:42;;;;;;;;;;;21.20;66.90;;;;;;4915916;29;19926;-64
2022/09/04 02:24:10;;;;;;;;;;;21.30;66.30;;;;;;4902568;29;19915;-64
2022/09/04 02:26:40;;;;;;;;;;;21.30;65.70;;;;;;4915548;29;19911;-64
2022/09/04 02:29:24;;;;;;;;;;;21.40;65.70;;;;;;4917429;29;19922;-64
2022/09/04 02:31:57;;;;;;;;;;;21.40;64.90;;;;;;4919227;29;20272;-65
2022/09/04 02:34:28;;;;;;;;;;;21.50;64.70;;;;;;4919441;29;19912;-65
2022/09/04 02:37:12;;;;;;;;;;;21.60;64.80;;;;;;4919238;29;19946;-63
2022/09/04 02:39:57;;;;;;;;;;;21.60;64.30;;;;;;4919109;29;19934;-64
2022/09/04 02:42:31;;;;;;;;;;;21.60;64.40;;;;;;4919070;29;19915;-63
2022/09/04 02:45:08;;;;;;;;;;;21.70;64.10;;;;;;4919016;29;19911;-63
2022/09/04 02:47:44;;;;;;;;;;;21.80;64.30;;;;;;4919152;29;19915;-65
2022/09/04 02:50:25;;;;;;;;;;;21.90;63.80;;;;;;4918822;29;19911;-64
2022/09/04 02:53:07;;;;;;;;;;;21.80;63.80;;;;;;4904274;29;20379;-66
2022/09/04 02:55:51;;;;;;;;;;;21.80;63.70;;;;;;4918916;29;19950;-65
2022/09/04 02:58:17;;;;;;;;;;;21.80;63.80;;;;;;4917867;29;19918;-64
2022/09/04 03:00:45;;;;;;;;;;;21.70;63.80;;;;;;4919006;29;19911;-65
2022/09/04 03:03:29;;;;;;;;;;;21.70;63.90;;;;;;4918830;29;19911;-65
2022/09/04 03:06:06;;;;;;;;;;;21.70;63.60;;;;;;4918822;29;20326;-67
2022/09/04 03:08:35;;;;;;;;;;;21.80;63.60;;;;;;4918463;29;19927;-71
2022/09/04 03:11:00;;;;;;;;;;;21.80;63.50;;;;;;4918590;29;20009;-70
2022/09/04 03:13:29;;;;;;;;;;;21.80;63.10;;;;;;4918657;29;20001;-69
2022/09/04 03:16:00;;;;;;;;;;;21.80;63.10;;;;;;4918429;29;19911;-69
2022/09/04 03:18:36;;;;;;;;;;;21.80;63.20;;;;;;4918325;29;20295;-68
2022/09/04 03:21:01;;;;;;;;;;;21.80;63.00;;;;;;4918460;29;19949;-64
2022/09/04 03:23:46;;;;;;;;;;;21.70;63.20;;;;;;4904300;29;19912;-69
2022/09/04 03:26:14;;;;;;;;;;;21.70;63.20;;;;;;4918339;29;20283;-71
2022/09/04 03:28:48;;;;;;;;;;;21.70;63.20;;;;;;4918305;29;19911;-69
2022/09/04 03:31:19;;;;;;;;;;;21.60;63.50;;;;;;4918172;29;20352;-70
2022/09/04 03:34:03;;;;;;;;;;;21.60;63.90;;;;;;4918335;29;20399;-64
2022/09/04 03:36:42;;;;;;;;;;;21.70;63.70;;;;;;4918150;29;19994;-65
2022/09/04 03:39:26;;;;;;;;;;;21.70;63.80;;;;;;4918002;29;19919;-63
2022/09/04 03:42:04;;;;;;;;;;;21.70;64.40;;;;;;4917447;29;20003;-64
2022/09/04 03:44:38;;;;;;;;;;;21.60;64.50;;;;;;4918309;29;19911;-70
2022/09/04 03:47:22;;;;;;;;;;;21.60;65.10;;;;;;4918067;29;19961;-71
2022/09/04 03:50:00;;;;;;;;;;;21.60;65.70;;;;;;4917764;29;19911;-70
2022/09/04 03:52:44;;;;;;;;;;;21.60;66.10;;;;;;4902416;29;19927;-69
2022/09/04 03:55:28;;;;;;;;;;;21.50;67.10;;;;;;4917801;29;20006;-70
2022/09/04 03:57:54;;;;;;;;;;;21.40;67.70;;;;;;4917873;29;20006;-69
2022/09/04 04:00:20;;;;;;;;;;;21.30;68.20;;;;;;4917612;29;19962;-69
2022/09/04 04:02:52;;;;;;;;;;;21.10;69.10;;;;;;4916494;29;19938;-70
2022/09/04 04:05:36;;;;;;;;;;;21.00;70.00;;;;;;4917581;29;20395;-69
2022/09/04 04:08:02;;;;;;;;;;;21.00;70.60;;;;;;4917930;29;19915;-66
2022/09/04 04:10:51;;;;;;;;;;;20.90;71.60;;;;;;4917411;29;19954;-71
2022/09/04 04:13:23;;;;;;;;;;;20.90;71.70;;;;;;4917653;29;19919;-70
2022/09/04 04:16:02;;;;;;;;;;;20.80;72.30;;;;;;4917771;29;19918;-71
2022/09/04 04:18:36;;;;;;;;;;;20.80;72.80;;;;;;4917460;29;19912;-69
2022/09/04 04:21:22;;;;;;;;;;;20.80;73.30;;;;;;4917130;29;19990;-67
2022/09/04 04:23:58;;;;;;;;;;;20.80;73.50;;;;;;4906507;29;19911;-69
2022/09/04 04:26:30;;;;;;;;;;;20.80;73.30;;;;;;4917147;29;19916;-69
2022/09/04 04:29:01;;;;;;;;;;;20.80;73.30;;;;;;4917197;29;19918;-68
2022/09/04 04:31:33;;;;;;;;;;;20.70;73.90;;;;;;4917014;29;19967;-68
2022/09/04 04:34:03;;;;;;;;;;;20.70;73.80;;;;;;4917440;29;19911;-67
2022/09/04 04:36:47;;;;;;;;;;;20.60;74.60;;;;;;4917086;29;20267;-66
2022/09/04 04:39:18;;;;;;;;;;;20.60;75.20;;;;;;4916970;29;19918;-65
2022/09/04 04:42:04;;;;;;;;;;;20.60;75.20;;;;;;4916836;29;19912;-66
2022/09/04 04:47:40;;;;;;;;;;;20.60;75.30;;;;;;4916880;29;20018;-63
2022/09/04 04:50:12;;;;;;;;;;;20.70;75.50;;;;;;4916646;29;19911;-64
2022/09/04 04:52:48;;;;;;;;;;;20.60;75.90;;;;;;4903152;29;19974;-64
2022/09/04 04:55:20;;;;;;;;;;;20.70;75.90;;;;;;4916854;29;19999;-64
2022/09/04 04:57:57;;;;;;;;;;;20.70;76.40;;;;;;4916876;29;19912;-64
2022/09/04 05:00:30;;;;;;;;;;;20.70;76.80;;;;;;4916527;29;19947;-64
2022/09/04 05:03:31;;;;;;;;;;;20.70;77.10;;;;;;4917092;29;19950;-64
2022/09/04 05:06:02;;;;;;;;;;;20.80;76.50;;;;;;4952363;29;19997;-65
2022/09/04 05:08:27;;;;;;;;;;;20.90;76.10;;;;;;4922792;29;20323;-64
2022/09/04 05:11:03;;;;;;;;;;;21.00;74.90;;;;;;4916254;29;19919;-63
2022/09/04 05:13:35;;;;;;;;;;;21.10;73.50;;;;;;4916403;29;19919;-63
2022/09/04 05:16:14;;;;;;;;;;;21.20;73.30;;;;;;4916319;29;19915;-64
2022/09/04 05:18:39;;;;;;;;;;;21.30;72.80;;;;;;4916440;29;19922;-68
2022/09/04 05:21:10;;;;;;;;;;;21.30;73.40;;;;;;4916237;29;19915;-66
2022/09/04 05:23:54;;;;;;;;;;;21.30;73.00;;;;;;4910329;29;20295;-64
2022/09/04 05:26:36;;;;;;;;;;;21.30;73.60;;;;;;4916247;29;19911;-63
2022/09/04 05:29:05;;;;;;;;;;;21.40;74.40;;;;;;4916398;29;19918;-65
2022/09/04 05:31:49;;;;;;;;;;;21.40;74.30;;;;;;4916089;29;20340;-64
2022/09/04 05:34:21;;;;;;;;;;;21.50;74.10;;;;;;4916223;29;20279;-64
2022/09/04 05:36:50;;;;;;;;;;;21.50;74.50;;;;;;4916372;29;19907;-64
2022/09/04 05:39:29;;;;;;;;;;;21.50;74.80;;;;;;4916384;29;19912;-62
2022/09/04 05:41:54;;;;;;;;;;;21.70;73.30;;;;;;4915726;29;20018;-63
2022/09/04 05:44:26;;;;;;;;;;;21.90;73.00;;;;;;4915784;29;19959;-65
2022/09/04 05:47:07;;;;;;;;;;;22.10;72.90;;;;;;4915991;29;19915;-65
2022/09/04 05:49:53;;;;;;;;;;;22.10;73.30;;;;;;4916014;29;19939;-65
2022/09/04 05:52:19;;;;;;;;;;;22.10;73.90;;;;;;4904943;29;19974;-62
2022/09/04 05:54:56;;;;;;;;;;;22.20;74.20;;;;;;4915869;29;20379;-63
2022/09/04 05:57:27;;;;;;;;;;;22.20;74.30;;;;;;4916061;29;19917;-65
2022/09/04 05:59:52;;;;;;;;;;;22.10;74.80;;;;;;4915786;29;20014;-68
2022/09/04 06:02:36;;;;;;;;;;;22.10;74.60;;;;;;4915740;29;20423;-65
2022/09/04 06:05:05;;;;;;;;;;;22.10;75.80;;;;;;4919204;29;19922;-68
2022/09/04 06:07:36;;;;;;;;;;;22.10;75.20;;;;;;4919841;29;19911;-65
2022/09/04 06:10:20;;;;;;;;;;;22.10;76.20;;;;;;4919486;29;20379;-63
2022/09/04 06:12:46;;;;;;;;;;;22.10;75.20;;;;;;4919612;29;19923;-66
2022/09/04 06:15:11;;;;;;;;;;;22.10;74.60;;;;;;4919595;29;19911;-66
2022/09/04 06:17:56;;;;;;;;;;;22.10;74.10;;;;;;4919408;29;19986;-67
2022/09/04 06:20:31;;;;;;;;;;;22.20;73.60;;;;;;4919430;29;20022;-69
2022/09/04 06:23:00;;;;;;;;;;;22.10;74.20;;;;;;4908384;29;19915;-70
2022/09/04 06:25:44;;;;;;;;;;;22.10;74.10;;;;;;4919466;29;19919;-71
2022/09/04 06:28:15;;;;;;;;;;;22.20;74.80;;;;;;4919780;29;19982;-67
2022/09/04 06:30:46;;;;;;;;;;;22.20;75.20;;;;;;4919286;29;19911;-70
2022/09/04 06:33:15;;;;;;;;;;;22.30;75.60;;;;;;4919289;29;19919;-66
2022/09/04 06:35:53;;;;;;;;;;;22.30;75.30;;;;;;4919302;29;19915;-68
2022/09/04 06:38:37;;;;;;;;;;;22.40;74.50;;;;;;4917869;29;19919;-68
2022/09/04 06:41:14;;;;;;;;;;;22.50;73.90;;;;;;4919328;29;19918;-67
2022/09/04 06:43:49;;;;;;;;;;;22.70;73.70;;;;;;4918915;29;20384;-67
2022/09/04 06:46:17;;;;;;;;;;;22.80;72.70;;;;;;4919210;29;19916;-67
2022/09/04 06:48:43;;;;;;;;;;;22.90;72.00;;;;;;4918903;29;19915;-68
2022/09/04 06:51:27;;;;;;;;;;;23.10;71.80;;;;;;4919001;29;20280;-68
2022/09/04 06:53:59;;;;;;;;;;;23.40;71.80;;;;;;4904918;29;19915;-71
2022/09/04 06:56:45;;;;;;;;;;;23.60;70.00;;;;;;4918948;29;19963;-69
2022/09/04 06:59:14;;;;;;;;;;;23.70;70.20;;;;;;4918953;29;19911;-70
2022/09/04 07:01:59;;;;;;;;;;;23.90;69.30;;;;;;4918972;29;20275;-68
2022/09/04 07:04:30;;;;;;;;;;;24.20;68.10;;;;;;4918983;29;20375;-68
2022/09/04 07:06:58;;;;;;;;;;;24.60;67.30;;;;;;4917745;29;19918;-75
2022/09/04 07:09:25;;;;;;;;;;;24.70;66.10;;;;;;4917564;29;19930;-70
2022/09/04 07:12:20;;;;;;;;;;;24.70;65.70;;;;;;4917398;29;19927;-75
2022/09/04 07:15:05;;;;;;;;;;;24.60;66.40;;;;;;4899238;29;19915;-76
2022/09/04 07:17:35;;;;;;;;;;;24.60;67.00;;;;;;4917508;29;20185;-77
2022/09/04 07:20:25;;;;;;;;;;;24.50;66.90;;;;;;4918545;29;20013;-75
2022/09/04 07:23:10;;;;;;;;;;;24.40;67.20;;;;;;4909924;29;19994;-76
2022/09/04 07:25:43;;;;;;;;;;;24.40;67.20;;;;;;4918621;29;19922;-71
2022/09/04 07:28:21;;;;;;;;;;;24.60;66.20;;;;;;4918545;29;20260;-75
2022/09/04 07:30:52;;;;;;;;;;;25.00;66.70;;;;;;4918242;29;19915;-74
2022/09/04 07:33:23;;;;;;;;;;;25.20;64.20;;;;;;4917023;29;20013;-73
2022/09/04 07:36:06;;;;;;;;;;;25.40;63.90;;;;;;4915968;29;19915;-73
2022/09/04 07:38:51;;;;;;;;;;;25.60;62.20;;;;;;4917527;29;19911;-73
2022/09/04 07:41:25;;;;;;;;;;;25.80;61.60;;;;;;4916870;29;19962;-77
2022/09/04 07:44:01;;;;;;;;;;;26.00;61.50;;;;;;4914728;29;19919;-71
2022/09/04 07:46:32;;;;;;;;;;;26.00;61.00;;;;;;4917088;29;19915;-77
2022/09/04 07:48:57;;;;;;;;;;;26.20;60.90;;;;;;4916899;29;20390;-75
2022/09/04 07:51:27;;;;;;;;;;;26.30;60.80;;;;;;4916781;29;19915;-70
2022/09/04 07:53:56;;;;;;;;;;;26.30;60.70;;;;;;4908523;29;20014;-70
2022/09/04 07:56:36;;;;;;;;;;;26.30;60.70;;;;;;4916919;29;19911;-73
2022/09/04 07:59:12;;;;;;;;;;;26.40;60.80;;;;;;4916604;29;19911;-75
2022/09/04 08:01:43;;;;;;;;;;;26.40;61.30;;;;;;4916650;29;19919;-71
2022/09/04 08:04:29;;;;;;;;;;;26.50;61.50;;;;;;4916765;29;20010;-75
2022/09/04 08:06:59;;;;;;;;;;;26.50;61.60;;;;;;4912758;29;20918;-72
2022/09/04 08:09:51;;;;;;;;;;;26.50;60.80;;;;;;4914464;29;20376;-72
2022/09/04 08:12:36;;;;;;;;;;;26.70;61.00;;;;;;4908241;29;19923;-74
2022/09/04 08:15:14;;;;;;;;;;;26.70;60.50;;;;;;4916484;29;19915;-72
2022/09/04 08:18:00;;;;;;;;;;;26.70;60.90;;;;;;4916232;29;19990;-72
2022/09/04 08:20:43;;;;;;;;;;;26.70;61.20;;;;;;4905551;29;19919;-72
2022/09/04 08:23:47;;;;;;;;;;;26.70;61.60;;;;;;4904284;29;19918;-68
2022/09/04 08:26:27;;;;;;;;;;;26.70;61.10;;;;;;4895158;29;19912;-69
2022/09/04 08:28:55;;;;;;;;;;;26.80;61.10;;;;;;4895349;29;20444;-69
2022/09/04 08:31:24;;;;;;;;;;;26.80;60.60;;;;;;4907260;29;19915;-67
2022/09/04 08:33:52;;;;;;;;;;;26.80;60.70;;;;;;4916016;29;19916;-71
2022/09/04 08:36:44;;;;;;;;;;;26.80;61.60;;;;;;4914964;29;19971;-67
2022/09/04 08:39:29;;;;;;;;;;;26.80;61.20;;;;;;4912854;29;19922;-67
2022/09/04 08:42:00;;;;;;;;;;;26.90;61.30;;;;;;4916521;29;20380;-78
2022/09/04 08:44:44;;;;;;;;;;;26.80;61.80;;;;;;4916460;29;19911;-74
2022/09/04 08:47:28;;;;;;;;;;;26.80;60.40;;;;;;4917032;29;19912;-69
2022/09/04 08:50:13;;;;;;;;;;;26.80;60.20;;;;;;4916652;29;19915;-66
2022/09/04 08:52:53;;;;;;;;;;;26.80;59.80;;;;;;4907843;29;20363;-66
2022/09/04 08:55:31;;;;;;;;;;;26.80;59.10;;;;;;4916749;29;19911;-68
2022/09/04 08:58:12;;;;;;;;;;;26.80;59.80;;;;;;4915580;29;19918;-65
2022/09/04 09:00:41;;;;;;;;;;;26.80;60.20;;;;;;4915734;29;20375;-63
2022/09/04 09:03:06;;;;;;;;;;;26.70;59.90;;;;;;4915798;29;19911;-65
2022/09/04 09:05:38;;;;;;;;;;;26.70;60.20;;;;;;4915845;29;19922;-64
2022/09/04 09:08:09;;;;;;;;;;;26.70;60.60;;;;;;4914238;29;19922;-65
2022/09/04 09:10:36;;;;;;;;;;;26.70;60.50;;;;;;4915429;29;20359;-70
2022/09/04 09:13:20;;;;;;;;;;;26.70;60.30;;;;;;4915404;29;19923;-66
2022/09/04 09:16:09;;;;;;;;;;;26.70;60.60;;;;;;4915475;29;19920;-64
2022/09/04 09:18:36;;;;;;;;;;;26.70;60.10;;;;;;4915134;29;20434;-71
2022/09/04 09:21:09;;;;;;;;;;;26.70;60.90;;;;;;4915302;29;19915;-66
2022/09/04 09:23:40;;;;;;;;;;;26.70;61.20;;;;;;4905037;29;19988;-68
2022/09/04 09:26:25;;;;;;;;;;;26.60;60.80;;;;;;4914776;29;19922;-64
2022/09/04 09:28:53;;;;;;;;;;;26.60;61.10;;;;;;4915157;29;19962;-63
2022/09/04 09:31:25;;;;;;;;;;;26.60;61.00;;;;;;4915865;29;20359;-64
2022/09/04 09:33:51;;;;;;;;;;;26.70;61.10;;;;;;4916158;29;19943;-67
2022/09/04 09:36:35;;;;;;;;;;;26.50;61.60;;;;;;4916132;29;19911;-68
2022/09/04 09:39:01;;;;;;;;;;;26.60;61.90;;;;;;4926697;29;20280;-66
2022/09/04 09:41:41;;;;;;;;;;;26.70;62.10;;;;;;4916173;29;19911;-66
2022/09/04 09:44:25;;;;;;;;;;;26.60;62.00;;;;;;4915562;29;20370;-64
2022/09/04 09:47:23;;;;;;;;;;;26.60;61.60;;;;;;4915665;29;20320;-68
2022/09/04 09:50:01;;;;;;;;;;;26.50;62.20;;;;;;4934881;29;19998;-64
2022/09/04 09:52:38;;;;;;;;;;;26.50;63.10;;;;;;4903747;29;20045;-64
2022/09/04 09:55:13;;;;;;;;;;;26.40;63.50;;;;;;4915711;29;19922;-64
2022/09/04 09:57:57;;;;;;;;;;;26.30;63.90;;;;;;4915833;29;20022;-64
2022/09/04 10:00:26;;;;;;;;;;;26.40;64.40;;;;;;4916197;29;19922;-69
2022/09/04 10:02:57;;;;;;;;;;;26.30;63.70;;;;;;4916049;28;20379;-69
2022/09/04 10:05:41;;;;;;;;;;;26.30;63.60;;;;;;4915395;29;19919;-72
2022/09/04 10:08:13;;;;;;;;;;;26.30;63.40;;;;;;4915693;29;19935;-69
2022/09/04 10:11:04;;;;;;;;;;;26.30;63.50;;;;;;4915210;29;20046;-67
2022/09/04 10:13:33;;;;;;;;;;;26.20;63.00;;;;;;4905000;29;20280;-68
2022/09/04 10:16:17;;;;;;;;;;;26.20;63.10;;;;;;4914665;29;20046;-68
2022/09/04 10:18:43;;;;;;;;;;;26.20;63.80;;;;;;4911496;29;19915;-68
2022/09/04 10:21:24;;;;;;;;;;;26.10;64.50;;;;;;4913271;29;19911;-67
2022/09/04 10:23:49;;;;;;;;;;;26.10;64.70;;;;;;4903034;29;19951;-68
2022/09/04 10:26:33;;;;;;;;;;;26.10;64.90;;;;;;4913028;29;20015;-66
2022/09/04 10:29:08;;;;;;;;;;;26.10;65.40;;;;;;4914304;29;20432;-66
2022/09/04 10:31:34;;;;;;;;;;;26.20;65.70;;;;;;4913116;29;19922;-66
2022/09/04 10:34:09;;;;;;;;;;;26.20;65.80;;;;;;4913865;29;19923;-67
2022/09/04 10:36:34;;;;;;;;;;;26.20;65.30;;;;;;4914114;29;20280;-70
2022/09/04 10:42:05;;;;;;;;;;;26.20;65.50;;;;;;4930838;29;19911;-68
2022/09/04 10:44:53;;;;;;;;;;;26.20;65.40;;;;;;4918196;29;19927;-69
2022/09/04 10:47:26;;;;;;;;;;;26.20;65.70;;;;;;4915433;29;19911;-70
2022/09/04 10:49:52;;;;;;;;;;;26.20;65.50;;;;;;4916243;29;19915;-72
2022/09/04 10:52:29;;;;;;;;;;;26.20;66.80;;;;;;4904783;29;20493;-72
2022/09/04 10:55:15;;;;;;;;;;;26.30;67.20;;;;;;4915312;29;19926;-69
2022/09/04 10:57:59;;;;;;;;;;;26.30;68.90;;;;;;4914873;29;19911;-71
2022/09/04 11:00:49;;;;;;;;;;;26.40;68.80;;;;;;4918011;29;20011;-68
2022/09/04 11:03:20;;;;;;;;;;;26.40;68.00;;;;;;4913752;29;19924;-67
2022/09/04 11:06:22;;;;;;;;;;;26.40;66.30;;;;;;4917618;29;20379;-66
2022/09/04 11:09:11;;;;;;;;;;;26.30;66.60;;;;;;4930650;28;20017;-67
2022/09/04 11:11:39;;;;;;;;;;;26.30;67.60;;;;;;4917317;29;20030;-72
2022/09/04 11:14:24;;;;;;;;;;;26.40;66.70;;;;;;4917189;29;19911;-69
2022/09/04 11:17:08;;;;;;;;;;;26.40;66.90;;;;;;4917456;29;20320;-69
2022/09/04 11:19:42;;;;;;;;;;;26.40;65.30;;;;;;4917039;29;19970;-69
2022/09/04 11:22:23;;;;;;;;;;;26.30;66.50;;;;;;4907990;29;19978;-66
2022/09/04 11:25:00;;;;;;;;;;;26.30;66.30;;;;;;4917131;29;20286;-69
2022/09/04 11:27:44;;;;;;;;;;;26.30;66.60;;;;;;4917267;29;19918;-67
2022/09/04 11:30:30;;;;;;;;;;;26.30;66.70;;;;;;4905360;29;19911;-68
2022/09/04 11:32:55;;;;;;;;;;;26.40;65.70;;;;;;4916453;29;20257;-65
2022/09/04 11:35:21;;;;;;;;;;;26.30;66.40;;;;;;4917245;29;19922;-70
2022/09/04 11:38:06;;;;;;;;;;;26.40;66.00;;;;;;4917179;29;19918;-72
2022/09/04 11:40:34;;;;;;;;;;;26.40;66.30;;;;;;4917307;29;20267;-67
2022/09/04 11:43:12;;;;;;;;;;;26.40;66.40;;;;;;4917117;29;19911;-68
2022/09/04 11:45:57;;;;;;;;;;;26.30;66.20;;;;;;4917202;29;19915;-65
2022/09/04 11:48:28;;;;;;;;;;;26.30;66.20;;;;;;4915435;29;19911;-66
2022/09/04 11:51:03;;;;;;;;;;;26.30;66.20;;;;;;4916811;29;19922;-68
2022/09/04 11:53:40;;;;;;;;;;;26.30;65.90;;;;;;4917146;28;20459;-67
2022/09/04 11:56:18;;;;;;;;;;;26.20;66.40;;;;;;4908872;29;19926;-70
2022/09/04 11:58:43;;;;;;;;;;;26.20;67.20;;;;;;4915881;29;20013;-73
2022/09/04 12:01:15;;;;;;;;;;;26.20;67.50;;;;;;4914931;29;20316;-70
2022/09/04 12:03:52;;;;;;;;;;;26.20;66.60;;;;;;4916627;29;19915;-70
2022/09/04 12:06:36;;;;;;;;;;;26.30;66.70;;;;;;4918483;29;19922;-71
2022/09/04 12:09:21;;;;;;;;;;;26.30;66.80;;;;;;4917295;29;19923;-70
2022/09/04 12:11:53;;;;;;;;;;;26.30;66.80;;;;;;4911794;29;19975;-72
2022/09/04 12:14:41;;;;;;;;;;;26.30;67.20;;;;;;4915843;29;19915;-64
2022/09/04 12:17:14;;;;;;;;;;;26.30;66.60;;;;;;4913456;29;19919;-64
2022/09/04 12:19:45;;;;;;;;;;;26.40;66.50;;;;;;4916559;29;19911;-64
2022/09/04 12:22:17;;;;;;;;;;;26.40;66.40;;;;;;4909180;29;20414;-66
2022/09/04 12:25:01;;;;;;;;;;;26.40;66.10;;;;;;4915785;29;19918;-64
2022/09/04 12:27:27;;;;;;;;;;;26.40;66.30;;;;;;4915274;29;19926;-66
2022/09/04 12:30:06;;;;;;;;;;;26.40;66.50;;;;;;4915343;29;19916;-66
2022/09/04 12:32:38;;;;;;;;;;;26.40;66.20;;;;;;4917647;29;19919;-66
2022/09/04 12:35:33;;;;;;;;;;;26.30;66.60;;;;;;4917874;29;19911;-67
2022/09/04 12:38:07;;;;;;;;;;;26.30;66.40;;;;;;4895564;29;19931;-69
2022/09/04 12:40:40;;;;;;;;;;;26.40;66.10;;;;;;4918361;29;19915;-74
2022/09/04 12:43:24;;;;;;;;;;;26.30;66.70;;;;;;4925841;29;19915;-74
2022/09/04 12:45:57;;;;;;;;;;;26.30;66.40;;;;;;4930659;29;19915;-73
2022/09/04 12:48:40;;;;;;;;;;;26.30;66.70;;;;;;4915520;29;20439;-74
2022/09/04 12:51:11;;;;;;;;;;;26.30;66.30;;;;;;4916276;29;19912;-66
2022/09/04 12:53:45;;;;;;;;;;;26.30;66.20;;;;;;4901967;29;19946;-66
2022/09/04 12:56:21;;;;;;;;;;;26.30;66.10;;;;;;4918094;29;20324;-66
2022/09/04 12:59:08;;;;;;;;;;;26.30;65.90;;;;;;4920000;29;19915;-65
2022/09/04 13:01:36;;;;;;;;;;;26.30;65.50;;;;;;4915074;29;19971;-65
2022/09/04 13:04:10;;;;;;;;;;;26.30;64.20;;;;;;4914642;29;19915;-66
2022/09/04 13:06:36;;;;;;;;;;;26.30;64.80;;;;;;4916700;29;20283;-65
2022/09/04 13:09:01;;;;;;;;;;;26.40;63.00;;;;;;4915351;29;19933;-67
2022/09/04 13:11:27;;;;;;;;;;;26.30;62.90;;;;;;4915436;29;19922;-65
2022/09/04 13:14:11;;;;;;;;;;;26.30;61.70;;;;;;4915548;29;19919;-65
2022/09/04 13:16:39;;;;;;;;;;;26.30;62.70;;;;;;4915510;29;20458;-64
2022/09/04 13:19:24;;;;;;;;;;;26.20;63.00;;;;;;4915392;29;19911;-65
2022/09/04 13:21:50;;;;;;;;;;;26.20;63.50;;;;;;4907790;29;19919;-63
2022/09/04 13:24:18;;;;;;;;;;;26.20;62.60;;;;;;4908156;29;19911;-66
2022/09/04 13:26:59;;;;;;;;;;;26.20;62.90;;;;;;4914988;29;19911;-66
2022/09/04 13:29:39;;;;;;;;;;;26.20;62.50;;;;;;4914797;29;20268;-67
2022/09/04 13:32:11;;;;;;;;;;;26.20;63.40;;;;;;4915924;29;19926;-65
2022/09/04 13:34:43;;;;;;;;;;;26.20;63.40;;;;;;4915458;29;19915;-68
2022/09/04 13:37:19;;;;;;;;;;;26.20;63.30;;;;;;4914771;29;19915;-67
2022/09/04 13:39:56;;;;;;;;;;;26.20;62.90;;;;;;4913511;29;19915;-65
2022/09/04 13:42:38;;;;;;;;;;;26.20;62.50;;;;;;4912932;29;19919;-69
2022/09/04 13:45:07;;;;;;;;;;;26.20;63.10;;;;;;4913538;29;19974;-67
2022/09/04 13:47:38;;;;;;;;;;;26.30;63.10;;;;;;4914686;29;19918;-70
2022/09/04 13:50:09;;;;;;;;;;;26.30;63.60;;;;;;4914904;29;20402;-71
2022/09/04 13:52:48;;;;;;;;;;;26.30;63.70;;;;;;4904024;29;19923;-69
2022/09/04 13:55:17;;;;;;;;;;;26.20;63.40;;;;;;4917428;29;19918;-69
2022/09/04 13:57:56;;;;;;;;;;;26.20;64.30;;;;;;4914868;29;19946;-66
2022/09/04 14:00:22;;;;;;;;;;;26.20;64.50;;;;;;4914965;29;20395;-65
2022/09/04 14:02:55;;;;;;;;;;;26.20;63.80;;;;;;4914170;29;19912;-66
2022/09/04 14:05:24;;;;;;;;;;;26.20;64.80;;;;;;4916814;29;19970;-66
2022/09/04 14:07:57;;;;;;;;;;;26.10;64.90;;;;;;4914423;29;20382;-66
2022/09/04 14:10:29;;;;;;;;;;;25.90;66.10;;;;;;4911919;29;20078;-67
2022/09/04 14:13:01;;;;;;;;;;;26.00;65.30;;;;;;4914411;29;19923;-67
2022/09/04 14:16:07;;;;;;;;;;;26.10;65.40;;;;;;4914216;29;20278;-69
2022/09/04 14:18:51;;;;;;;;;;;26.00;66.20;;;;;;4958869;28;19911;-68
2022/09/04 14:21:25;;;;;;;;;;;26.10;66.30;;;;;;4947264;28;19910;-66
2022/09/04 14:24:17;;;;;;;;;;;26.00;63.60;;;;;;4942313;28;20367;-68
2022/09/04 14:27:01;;;;;;;;;;;25.70;65.30;;;;;;4951472;28;19941;-67
2022/09/04 14:29:35;;;;;;;;;;;25.80;66.30;;;;;;4922176;28;19921;-67
2022/09/04 14:32:10;;;;;;;;;;;25.60;64.60;;;;;;4952894;29;20398;-68
2022/09/04 14:34:38;;;;;;;;;;;25.90;65.10;;;;;;4953069;29;19914;-68
2022/09/04 14:37:07;;;;;;;;;;;26.00;64.20;;;;;;4954682;29;19910;-69
2022/09/04 14:39:41;;;;;;;;;;;26.10;63.80;;;;;;4953848;29;20016;-68
2022/09/04 14:42:13;;;;;;;;;;;26.20;63.80;;;;;;4952747;28;20446;-69
2022/09/04 14:44:45;;;;;;;;;;;26.40;63.70;;;;;;4953524;29;19978;-69
2022/09/04 14:47:24;;;;;;;;;;;26.50;63.60;;;;;;4953178;28;20009;-69
2022/09/04 14:49:50;;;;;;;;;;;26.60;63.10;;;;;;4927965;29;19915;-68
2022/09/04 14:52:21;;;;;;;;;;;26.70;62.70;;;;;;4905529;29;19974;-68
2022/09/04 14:54:51;;;;;;;;;;;26.60;61.60;;;;;;4915617;29;19962;-68
2022/09/04 14:57:16;;;;;;;;;;;26.60;61.90;;;;;;4918415;29;19919;-68
2022/09/04 14:59:45;;;;;;;;;;;26.70;61.20;;;;;;4918660;29;19974;-68
2022/09/04 15:02:11;;;;;;;;;;;26.20;61.40;;;;;;4919295;29;19955;-71
2022/09/04 15:04:57;;;;;;;;;;;26.10;62.60;;;;;;4919075;29;19947;-64
2022/09/04 15:07:41;;;;;;;;;;;26.30;62.30;;;;;;4919010;29;19915;-67
2022/09/04 15:10:09;;;;;;;;;;;26.50;61.80;;;;;;4918661;29;19931;-67
2022/09/04 15:12:41;;;;;;;;;;;26.60;61.50;;;;;;4918549;29;19919;-66